sensor_id;sensor_type;location;lat;lon;timestamp;P1;durP1;ratioP1;P2;durP2;ratioP2
31061;SDS011;17724;53.546;9.974;2023-02-28T00:00:30;8.17;;;2.23;;
31061;SDS011;17724;53.546;9.974;2023-02-28T00:04:31;7.83;;;2.23;;
31061;SDS011;17724;53.546;9.974;2023-02-28T00:08:31;7.50;;;1.90;;
31061;SDS011;17724;53.546;9.974;2023-02-28T00:12:32;8.83;;;3.00;;
31061;SDS011;17724;53.546;9.974;2023-02-28T00:16:33;12.17;;;3.87;;
31061;SDS011;17724;53.546;9.974;2023-02-28T00:20:33;10.77;;;2.87;;
31061;SDS011;17724;53.546;9.974;2023-02-28T00:24:33;8.00;;;1.73;;
31061;SDS011;17724;53.546;9.974;2023-02-28T00:28:34;10.47;;;2.40;;
31061;SDS011;17724;53.546;9.974;2023-02-28T00:32:34;11.03;;;2.70;;
31061;SDS011;17724;53.546;9.974;2023-02-28T00:36:35;14.27;;;4.20;;
31061;SDS011;17724;53.546;9.974;2023-02-28T00:40:38;9.00;;;2.43;;
31061;SDS011;17724;53.546;9.974;2023-02-28T00:44:38;8.13;;;2.10;;
31061;SDS011;17724;53.546;9.974;2023-02-28T00:48:39;8.10;;;2.10;;
31061;SDS011;17724;53.546;9.974;2023-02-28T00:52:39;10.10;;;1.90;;
31061;SDS011;17724;53.546;9.974;2023-02-28T00:56:40;8.80;;;2.30;;
31061;SDS011;17724;53.546;9.974;2023-02-28T01:00:40;7.83;;;2.30;;
31061;SDS011;17724;53.546;9.974;2023-02-28T01:04:41;7.77;;;2.00;;
31061;SDS011;17724;53.546;9.974;2023-02-28T01:08:41;7.67;;;1.83;;
31061;SDS011;17724;53.546;9.974;2023-02-28T01:12:45;8.60;;;3.03;;
31061;SDS011;17724;53.546;9.974;2023-02-28T01:16:46;9.90;;;2.77;;
31061;SDS011;17724;53.546;9.974;2023-02-28T01:20:47;7.90;;;2.43;;
31061;SDS011;17724;53.546;9.974;2023-02-28T01:24:50;8.50;;;2.10;;
31061;SDS011;17724;53.546;9.974;2023-02-28T01:28:51;9.40;;;3.40;;
31061;SDS011;17724;53.546;9.974;2023-02-28T01:32:52;12.67;;;4.57;;
31061;SDS011;17724;53.546;9.974;2023-02-28T01:36:53;13.90;;;4.53;;
31061;SDS011;17724;53.546;9.974;2023-02-28T01:40:54;13.53;;;5.40;;
31061;SDS011;17724;53.546;9.974;2023-02-28T01:49:00;19.57;;;7.63;;
31061;SDS011;17724;53.546;9.974;2023-02-28T01:53:03;16.07;;;7.17;;
31061;SDS011;17724;53.546;9.974;2023-02-28T01:57:09;28.53;;;14.50;;
31061;SDS011;17724;53.546;9.974;2023-02-28T02:01:14;30.07;;;17.67;;
31061;SDS011;17724;53.546;9.974;2023-02-28T02:05:22;43.87;;;26.40;;
31061;SDS011;17724;53.546;9.974;2023-02-28T02:09:25;26.00;;;14.53;;
31061;SDS011;17724;53.546;9.974;2023-02-28T02:17:46;13.33;;;5.13;;
31061;SDS011;17724;53.546;9.974;2023-02-28T02:27:10;15.10;;;7.37;;
31061;SDS011;17724;53.546;9.974;2023-02-28T02:35:30;19.50;;;11.27;;
31061;SDS011;17724;53.546;9.974;2023-02-28T02:43:58;62.43;;;36.60;;
31061;SDS011;17724;53.546;9.974;2023-02-28T02:48:11;86.00;;;51.93;;
31061;SDS011;17724;53.546;9.974;2023-02-28T02:52:16;114.10;;;64.43;;
31061;SDS011;17724;53.546;9.974;2023-02-28T02:56:22;129.73;;;76.43;;
31061;SDS011;17724;53.546;9.974;2023-02-28T03:00:47;97.07;;;54.90;;
31061;SDS011;17724;53.546;9.974;2023-02-28T03:04:52;70.57;;;41.93;;
31061;SDS011;17724;53.546;9.974;2023-02-28T03:09:01;52.60;;;29.60;;
31061;SDS011;17724;53.546;9.974;2023-02-28T03:13:06;50.33;;;26.73;;
31061;SDS011;17724;53.546;9.974;2023-02-28T03:17:14;58.03;;;34.37;;
31061;SDS011;17724;53.546;9.974;2023-02-28T03:21:46;47.03;;;28.33;;
31061;SDS011;17724;53.546;9.974;2023-02-28T03:30:24;28.40;;;15.30;;
31061;SDS011;17724;53.546;9.974;2023-02-28T03:34:34;27.53;;;15.70;;
31061;SDS011;17724;53.546;9.974;2023-02-28T03:42:44;25.17;;;14.63;;
31061;SDS011;17724;53.546;9.974;2023-02-28T03:46:57;19.20;;;8.20;;
31061;SDS011;17724;53.546;9.974;2023-02-28T03:51:02;15.10;;;6.10;;
31061;SDS011;17724;53.546;9.974;2023-02-28T03:55:08;11.87;;;5.43;;
31061;SDS011;17724;53.546;9.974;2023-02-28T04:03:23;11.20;;;5.07;;
31061;SDS011;17724;53.546;9.974;2023-02-28T04:07:23;11.50;;;5.50;;
31061;SDS011;17724;53.546;9.974;2023-02-28T04:11:29;13.67;;;5.50;;
31061;SDS011;17724;53.546;9.974;2023-02-28T04:15:45;11.17;;;5.73;;
31061;SDS011;17724;53.546;9.974;2023-02-28T04:19:46;10.03;;;4.50;;
31061;SDS011;17724;53.546;9.974;2023-02-28T04:23:46;13.40;;;5.17;;
31061;SDS011;17724;53.546;9.974;2023-02-28T04:27:47;11.33;;;4.73;;
31061;SDS011;17724;53.546;9.974;2023-02-28T04:31:47;10.80;;;5.10;;
31061;SDS011;17724;53.546;9.974;2023-02-28T04:35:48;10.07;;;5.33;;
31061;SDS011;17724;53.546;9.974;2023-02-28T04:39:58;12.20;;;6.77;;
31061;SDS011;17724;53.546;9.974;2023-02-28T04:43:58;11.70;;;5.60;;
31061;SDS011;17724;53.546;9.974;2023-02-28T04:47:59;13.03;;;6.20;;
31061;SDS011;17724;53.546;9.974;2023-02-28T04:51:59;11.60;;;5.83;;
31061;SDS011;17724;53.546;9.974;2023-02-28T04:56:00;12.40;;;5.70;;
31061;SDS011;17724;53.546;9.974;2023-02-28T05:00:01;12.40;;;5.50;;
31061;SDS011;17724;53.546;9.974;2023-02-28T05:04:05;11.23;;;5.43;;
31061;SDS011;17724;53.546;9.974;2023-02-28T05:08:06;11.90;;;4.83;;
31061;SDS011;17724;53.546;9.974;2023-02-28T05:12:06;12.23;;;5.30;;
31061;SDS011;17724;53.546;9.974;2023-02-28T05:16:08;11.80;;;6.10;;
31061;SDS011;17724;53.546;9.974;2023-02-28T05:20:09;12.60;;;5.33;;
31061;SDS011;17724;53.546;9.974;2023-02-28T05:24:13;14.37;;;5.63;;
31061;SDS011;17724;53.546;9.974;2023-02-28T05:28:13;14.77;;;6.67;;
31061;SDS011;17724;53.546;9.974;2023-02-28T05:32:14;16.73;;;7.67;;
31061;SDS011;17724;53.546;9.974;2023-02-28T05:36:15;18.97;;;9.47;;
31061;SDS011;17724;53.546;9.974;2023-02-28T05:40:16;22.93;;;10.47;;
31061;SDS011;17724;53.546;9.974;2023-02-28T05:44:17;33.27;;;13.40;;
31061;SDS011;17724;53.546;9.974;2023-02-28T05:48:17;36.10;;;13.50;;
31061;SDS011;17724;53.546;9.974;2023-02-28T05:52:18;30.33;;;15.10;;
31061;SDS011;17724;53.546;9.974;2023-02-28T05:56:18;29.97;;;14.00;;
31061;SDS011;17724;53.546;9.974;2023-02-28T06:00:19;29.50;;;14.13;;
31061;SDS011;17724;53.546;9.974;2023-02-28T06:04:20;26.70;;;12.90;;
31061;SDS011;17724;53.546;9.974;2023-02-28T06:08:21;31.17;;;13.33;;
31061;SDS011;17724;53.546;9.974;2023-02-28T06:12:22;22.47;;;11.97;;
31061;SDS011;17724;53.546;9.974;2023-02-28T06:16:23;25.20;;;12.90;;
31061;SDS011;17724;53.546;9.974;2023-02-28T06:20:25;23.23;;;12.27;;
31061;SDS011;17724;53.546;9.974;2023-02-28T06:24:29;23.37;;;12.17;;
31061;SDS011;17724;53.546;9.974;2023-02-28T06:28:30;20.10;;;10.00;;
31061;SDS011;17724;53.546;9.974;2023-02-28T06:32:31;20.97;;;9.93;;
31061;SDS011;17724;53.546;9.974;2023-02-28T06:36:31;14.27;;;7.13;;
31061;SDS011;17724;53.546;9.974;2023-02-28T06:40:31;11.60;;;5.40;;
31061;SDS011;17724;53.546;9.974;2023-02-28T06:44:35;10.20;;;5.17;;
31061;SDS011;17724;53.546;9.974;2023-02-28T06:48:35;11.00;;;5.10;;
31061;SDS011;17724;53.546;9.974;2023-02-28T06:52:36;12.57;;;6.73;;
31061;SDS011;17724;53.546;9.974;2023-02-28T06:56:37;12.30;;;6.83;;
31061;SDS011;17724;53.546;9.974;2023-02-28T07:00:38;16.83;;;7.27;;
31061;SDS011;17724;53.546;9.974;2023-02-28T07:04:38;14.30;;;6.37;;
31061;SDS011;17724;53.546;9.974;2023-02-28T07:08:40;11.40;;;5.83;;
31061;SDS011;17724;53.546;9.974;2023-02-28T07:12:41;10.70;;;5.70;;
31061;SDS011;17724;53.546;9.974;2023-02-28T07:16:41;10.70;;;6.47;;
31061;SDS011;17724;53.546;9.974;2023-02-28T07:20:42;12.00;;;5.90;;
31061;SDS011;17724;53.546;9.974;2023-02-28T07:24:42;14.60;;;6.90;;
31061;SDS011;17724;53.546;9.974;2023-02-28T07:28:44;10.50;;;5.57;;
31061;SDS011;17724;53.546;9.974;2023-02-28T07:32:46;13.50;;;6.33;;
31061;SDS011;17724;53.546;9.974;2023-02-28T07:36:46;14.80;;;7.07;;
31061;SDS011;17724;53.546;9.974;2023-02-28T07:40:47;12.13;;;6.30;;
31061;SDS011;17724;53.546;9.974;2023-02-28T07:44:48;14.67;;;7.03;;
31061;SDS011;17724;53.546;9.974;2023-02-28T07:48:48;10.10;;;5.27;;
31061;SDS011;17724;53.546;9.974;2023-02-28T07:52:49;11.33;;;5.97;;
31061;SDS011;17724;53.546;9.974;2023-02-28T07:56:49;14.70;;;6.10;;
31061;SDS011;17724;53.546;9.974;2023-02-28T08:00:50;14.60;;;6.43;;
31061;SDS011;17724;53.546;9.974;2023-02-28T08:04:51;16.33;;;7.97;;
31061;SDS011;17724;53.546;9.974;2023-02-28T08:08:52;13.77;;;6.57;;
31061;SDS011;17724;53.546;9.974;2023-02-28T08:12:53;11.57;;;6.73;;
31061;SDS011;17724;53.546;9.974;2023-02-28T08:16:53;16.57;;;7.37;;
31061;SDS011;17724;53.546;9.974;2023-02-28T08:20:54;15.63;;;8.20;;
31061;SDS011;17724;53.546;9.974;2023-02-28T08:24:55;14.70;;;8.03;;
31061;SDS011;17724;53.546;9.974;2023-02-28T08:28:55;16.97;;;7.83;;
31061;SDS011;17724;53.546;9.974;2023-02-28T08:32:56;13.23;;;8.97;;
31061;SDS011;17724;53.546;9.974;2023-02-28T08:36:56;16.07;;;7.40;;
31061;SDS011;17724;53.546;9.974;2023-02-28T08:40:58;19.80;;;8.10;;
31061;SDS011;17724;53.546;9.974;2023-02-28T08:45:00;14.23;;;8.00;;
31061;SDS011;17724;53.546;9.974;2023-02-28T08:49:00;15.10;;;7.13;;
31061;SDS011;17724;53.546;9.974;2023-02-28T08:53:01;13.53;;;7.50;;
31061;SDS011;17724;53.546;9.974;2023-02-28T08:57:02;17.93;;;7.47;;
31061;SDS011;17724;53.546;9.974;2023-02-28T09:01:07;14.30;;;6.60;;
31061;SDS011;17724;53.546;9.974;2023-02-28T09:05:09;20.00;;;6.53;;
31061;SDS011;17724;53.546;9.974;2023-02-28T09:09:10;15.47;;;5.63;;
31061;SDS011;17724;53.546;9.974;2023-02-28T09:13:10;16.20;;;5.93;;
31061;SDS011;17724;53.546;9.974;2023-02-28T09:17:11;14.13;;;5.63;;
31061;SDS011;17724;53.546;9.974;2023-02-28T09:21:12;15.17;;;5.00;;
31061;SDS011;17724;53.546;9.974;2023-02-28T09:25:15;11.50;;;4.63;;
31061;SDS011;17724;53.546;9.974;2023-02-28T09:29:15;15.43;;;7.77;;
31061;SDS011;17724;53.546;9.974;2023-02-28T09:33:17;12.70;;;4.67;;
31061;SDS011;17724;53.546;9.974;2023-02-28T09:37:21;12.73;;;4.70;;
31061;SDS011;17724;53.546;9.974;2023-02-28T09:41:23;11.77;;;5.13;;
31061;SDS011;17724;53.546;9.974;2023-02-28T09:49:42;10.43;;;4.43;;
31061;SDS011;17724;53.546;9.974;2023-02-28T09:53:46;11.30;;;3.10;;
31061;SDS011;17724;53.546;9.974;2023-02-28T09:57:47;11.13;;;3.60;;
31061;SDS011;17724;53.546;9.974;2023-02-28T10:01:58;8.20;;;3.10;;
31061;SDS011;17724;53.546;9.974;2023-02-28T10:10:27;10.53;;;4.17;;
31061;SDS011;17724;53.546;9.974;2023-02-28T10:14:33;8.47;;;2.03;;
31061;SDS011;17724;53.546;9.974;2023-02-28T10:18:58;7.97;;;1.73;;
31061;SDS011;17724;53.546;9.974;2023-02-28T10:27:14;6.83;;;1.40;;
31061;SDS011;17724;53.546;9.974;2023-02-28T10:31:20;7.13;;;1.83;;
31061;SDS011;17724;53.546;9.974;2023-02-28T10:35:21;7.60;;;2.00;;
31061;SDS011;17724;53.546;9.974;2023-02-28T10:39:41;7.93;;;1.97;;
31061;SDS011;17724;53.546;9.974;2023-02-28T10:43:43;7.70;;;2.10;;
31061;SDS011;17724;53.546;9.974;2023-02-28T10:51:56;7.70;;;2.00;;
31061;SDS011;17724;53.546;9.974;2023-02-28T11:00:15;11.00;;;2.67;;
31061;SDS011;17724;53.546;9.974;2023-02-28T11:08:22;6.80;;;1.37;;
31061;SDS011;17724;53.546;9.974;2023-02-28T11:12:24;10.23;;;2.27;;
31061;SDS011;17724;53.546;9.974;2023-02-28T11:16:32;7.20;;;1.70;;
31061;SDS011;17724;53.546;9.974;2023-02-28T11:20:37;9.63;;;3.03;;
31061;SDS011;17724;53.546;9.974;2023-02-28T11:24:43;8.70;;;2.13;;
31061;SDS011;17724;53.546;9.974;2023-02-28T11:28:47;9.43;;;2.70;;
31061;SDS011;17724;53.546;9.974;2023-02-28T11:32:48;9.40;;;3.13;;
31061;SDS011;17724;53.546;9.974;2023-02-28T11:36:49;11.50;;;5.50;;
31061;SDS011;17724;53.546;9.974;2023-02-28T11:49:27;7.30;;;2.03;;
31061;SDS011;17724;53.546;9.974;2023-02-28T12:07:18;10.53;;;2.90;;
31061;SDS011;17724;53.546;9.974;2023-02-28T12:27:49;9.43;;;2.63;;
31061;SDS011;17724;53.546;9.974;2023-02-28T12:31:55;9.03;;;2.63;;
31061;SDS011;17724;53.546;9.974;2023-02-28T12:36:04;8.57;;;1.87;;
31061;SDS011;17724;53.546;9.974;2023-02-28T12:44:14;8.50;;;1.70;;
31061;SDS011;17724;53.546;9.974;2023-02-28T12:48:37;12.47;;;3.10;;
31061;SDS011;17724;53.546;9.974;2023-02-28T12:52:48;10.07;;;3.20;;
31061;SDS011;17724;53.546;9.974;2023-02-28T12:57:07;9.50;;;2.23;;
31061;SDS011;17724;53.546;9.974;2023-02-28T13:10:11;9.17;;;2.23;;
31061;SDS011;17724;53.546;9.974;2023-02-28T13:14:35;7.63;;;2.27;;
31061;SDS011;17724;53.546;9.974;2023-02-28T13:18:38;8.13;;;2.47;;
31061;SDS011;17724;53.546;9.974;2023-02-28T13:22:46;7.50;;;2.17;;
31061;SDS011;17724;53.546;9.974;2023-02-28T13:38:57;7.53;;;1.83;;
31061;SDS011;17724;53.546;9.974;2023-02-28T13:43:02;7.40;;;2.10;;
31061;SDS011;17724;53.546;9.974;2023-02-28T13:51:26;7.57;;;1.50;;
31061;SDS011;17724;53.546;9.974;2023-02-28T14:00:02;7.10;;;2.00;;
31061;SDS011;17724;53.546;9.974;2023-02-28T14:08:45;10.20;;;2.83;;
31061;SDS011;17724;53.546;9.974;2023-02-28T14:17:04;10.23;;;3.03;;
31061;SDS011;17724;53.546;9.974;2023-02-28T14:21:13;9.30;;;2.80;;
31061;SDS011;17724;53.546;9.974;2023-02-28T14:38:24;8.60;;;2.67;;
31061;SDS011;17724;53.546;9.974;2023-02-28T14:42:35;8.97;;;3.83;;
31061;SDS011;17724;53.546;9.974;2023-02-28T14:46:44;7.27;;;2.53;;
31061;SDS011;17724;53.546;9.974;2023-02-28T14:50:51;8.93;;;2.67;;
31061;SDS011;17724;53.546;9.974;2023-02-28T14:55:05;7.90;;;3.10;;
31061;SDS011;17724;53.546;9.974;2023-02-28T14:59:29;8.03;;;2.90;;
31061;SDS011;17724;53.546;9.974;2023-02-28T15:03:35;8.37;;;3.30;;
31061;SDS011;17724;53.546;9.974;2023-02-28T15:07:37;7.57;;;2.47;;
31061;SDS011;17724;53.546;9.974;2023-02-28T15:11:37;10.53;;;4.83;;
31061;SDS011;17724;53.546;9.974;2023-02-28T15:15:41;6.90;;;2.10;;
31061;SDS011;17724;53.546;9.974;2023-02-28T15:20:01;8.80;;;2.27;;
31061;SDS011;17724;53.546;9.974;2023-02-28T15:24:04;7.67;;;2.30;;
31061;SDS011;17724;53.546;9.974;2023-02-28T15:28:25;8.13;;;2.33;;
31061;SDS011;17724;53.546;9.974;2023-02-28T15:32:29;8.60;;;2.20;;
31061;SDS011;17724;53.546;9.974;2023-02-28T15:36:32;7.20;;;2.43;;
31061;SDS011;17724;53.546;9.974;2023-02-28T15:40:49;25.40;;;15.27;;
31061;SDS011;17724;53.546;9.974;2023-02-28T15:44:57;7.90;;;3.30;;
31061;SDS011;17724;53.546;9.974;2023-02-28T15:48:59;16.30;;;7.40;;
31061;SDS011;17724;53.546;9.974;2023-02-28T15:53:00;8.50;;;2.47;;
31061;SDS011;17724;53.546;9.974;2023-02-28T15:57:04;7.10;;;2.70;;
31061;SDS011;17724;53.546;9.974;2023-02-28T16:01:30;10.17;;;2.50;;
31061;SDS011;17724;53.546;9.974;2023-02-28T16:05:32;9.10;;;2.80;;
31061;SDS011;17724;53.546;9.974;2023-02-28T16:09:32;7.93;;;2.57;;
31061;SDS011;17724;53.546;9.974;2023-02-28T16:13:33;9.70;;;3.20;;
31061;SDS011;17724;53.546;9.974;2023-02-28T16:17:34;8.10;;;3.10;;
31061;SDS011;17724;53.546;9.974;2023-02-28T16:21:38;8.83;;;3.03;;
31061;SDS011;17724;53.546;9.974;2023-02-28T16:25:39;10.43;;;4.43;;
31061;SDS011;17724;53.546;9.974;2023-02-28T16:29:42;9.93;;;3.80;;
31061;SDS011;17724;53.546;9.974;2023-02-28T16:33:43;17.03;;;10.23;;
31061;SDS011;17724;53.546;9.974;2023-02-28T16:37:44;12.87;;;4.77;;
31061;SDS011;17724;53.546;9.974;2023-02-28T16:41:45;8.50;;;3.17;;
31061;SDS011;17724;53.546;9.974;2023-02-28T16:45:47;28.57;;;19.07;;
31061;SDS011;17724;53.546;9.974;2023-02-28T16:49:48;13.87;;;7.07;;
31061;SDS011;17724;53.546;9.974;2023-02-28T16:53:48;13.70;;;7.27;;
31061;SDS011;17724;53.546;9.974;2023-02-28T16:57:53;9.30;;;3.87;;
31061;SDS011;17724;53.546;9.974;2023-02-28T17:01:56;10.50;;;5.10;;
31061;SDS011;17724;53.546;9.974;2023-02-28T17:06:00;9.60;;;3.80;;
31061;SDS011;17724;53.546;9.974;2023-02-28T17:10:00;22.30;;;13.30;;
31061;SDS011;17724;53.546;9.974;2023-02-28T17:14:08;39.43;;;25.50;;
31061;SDS011;17724;53.546;9.974;2023-02-28T17:18:10;25.80;;;16.57;;
31061;SDS011;17724;53.546;9.974;2023-02-28T17:22:16;39.27;;;17.93;;
31061;SDS011;17724;53.546;9.974;2023-02-28T17:26:17;107.00;;;71.67;;
31061;SDS011;17724;53.546;9.974;2023-02-28T17:30:23;17.20;;;10.53;;
31061;SDS011;17724;53.546;9.974;2023-02-28T17:34:28;26.47;;;20.53;;
31061;SDS011;17724;53.546;9.974;2023-02-28T17:38:29;12.10;;;6.40;;
31061;SDS011;17724;53.546;9.974;2023-02-28T17:42:30;9.80;;;3.47;;
31061;SDS011;17724;53.546;9.974;2023-02-28T17:46:30;28.80;;;17.20;;
31061;SDS011;17724;53.546;9.974;2023-02-28T17:50:32;39.63;;;28.67;;
31061;SDS011;17724;53.546;9.974;2023-02-28T17:54:33;41.27;;;28.63;;
31061;SDS011;17724;53.546;9.974;2023-02-28T17:58:33;49.40;;;24.97;;
31061;SDS011;17724;53.546;9.974;2023-02-28T18:02:34;32.33;;;23.20;;
31061;SDS011;17724;53.546;9.974;2023-02-28T18:06:35;28.30;;;22.80;;
31061;SDS011;17724;53.546;9.974;2023-02-28T18:10:46;13.03;;;5.97;;
31061;SDS011;17724;53.546;9.974;2023-02-28T18:14:46;20.90;;;13.67;;
31061;SDS011;17724;53.546;9.974;2023-02-28T18:18:47;20.90;;;15.93;;
31061;SDS011;17724;53.546;9.974;2023-02-28T18:22:49;15.30;;;9.17;;
31061;SDS011;17724;53.546;9.974;2023-02-28T18:26:49;15.40;;;9.53;;
31061;SDS011;17724;53.546;9.974;2023-02-28T18:30:50;19.80;;;12.50;;
31061;SDS011;17724;53.546;9.974;2023-02-28T18:34:51;16.33;;;6.93;;
31061;SDS011;17724;53.546;9.974;2023-02-28T18:38:51;12.27;;;6.80;;
31061;SDS011;17724;53.546;9.974;2023-02-28T18:42:52;13.40;;;7.47;;
31061;SDS011;17724;53.546;9.974;2023-02-28T18:46:52;16.33;;;9.67;;
31061;SDS011;17724;53.546;9.974;2023-02-28T18:50:53;15.67;;;9.70;;
31061;SDS011;17724;53.546;9.974;2023-02-28T18:54:54;15.10;;;5.50;;
31061;SDS011;17724;53.546;9.974;2023-02-28T18:58:55;50.03;;;39.97;;
31061;SDS011;17724;53.546;9.974;2023-02-28T19:02:56;72.27;;;56.70;;
31061;SDS011;17724;53.546;9.974;2023-02-28T19:06:57;19.30;;;13.80;;
31061;SDS011;17724;53.546;9.974;2023-02-28T19:10:57;26.50;;;19.20;;
31061;SDS011;17724;53.546;9.974;2023-02-28T19:14:58;15.17;;;6.20;;
31061;SDS011;17724;53.546;9.974;2023-02-28T19:18:59;12.60;;;8.27;;
31061;SDS011;17724;53.546;9.974;2023-02-28T19:23:00;12.90;;;5.23;;
31061;SDS011;17724;53.546;9.974;2023-02-28T19:27:01;14.63;;;8.20;;
31061;SDS011;17724;53.546;9.974;2023-02-28T19:31:02;14.50;;;8.53;;
31061;SDS011;17724;53.546;9.974;2023-02-28T19:35:02;15.00;;;11.40;;
31061;SDS011;17724;53.546;9.974;2023-02-28T19:39:04;16.40;;;10.13;;
31061;SDS011;17724;53.546;9.974;2023-02-28T19:43:05;15.53;;;10.43;;
31061;SDS011;17724;53.546;9.974;2023-02-28T19:47:05;12.40;;;5.50;;
31061;SDS011;17724;53.546;9.974;2023-02-28T19:51:10;12.30;;;7.17;;
31061;SDS011;17724;53.546;9.974;2023-02-28T19:55:12;14.33;;;8.90;;
31061;SDS011;17724;53.546;9.974;2023-02-28T19:59:13;14.13;;;7.10;;
31061;SDS011;17724;53.546;9.974;2023-02-28T20:03:14;12.30;;;7.17;;
31061;SDS011;17724;53.546;9.974;2023-02-28T20:07:15;13.53;;;9.20;;
31061;SDS011;17724;53.546;9.974;2023-02-28T20:11:17;17.43;;;10.60;;
31061;SDS011;17724;53.546;9.974;2023-02-28T20:15:17;15.93;;;7.70;;
31061;SDS011;17724;53.546;9.974;2023-02-28T20:19:17;13.33;;;7.23;;
31061;SDS011;17724;53.546;9.974;2023-02-28T20:23:18;15.30;;;7.83;;
31061;SDS011;17724;53.546;9.974;2023-02-28T20:27:18;16.70;;;9.50;;
31061;SDS011;17724;53.546;9.974;2023-02-28T20:31:20;11.50;;;5.93;;
31061;SDS011;17724;53.546;9.974;2023-02-28T20:35:22;13.07;;;6.00;;
31061;SDS011;17724;53.546;9.974;2023-02-28T20:39:23;12.83;;;5.00;;
31061;SDS011;17724;53.546;9.974;2023-02-28T20:43:23;15.67;;;5.37;;
31061;SDS011;17724;53.546;9.974;2023-02-28T20:47:24;15.43;;;4.70;;
31061;SDS011;17724;53.546;9.974;2023-02-28T20:51:25;15.93;;;3.80;;
31061;SDS011;17724;53.546;9.974;2023-02-28T20:55:25;74.60;;;44.70;;
31061;SDS011;17724;53.546;9.974;2023-02-28T20:59:26;87.37;;;61.23;;
31061;SDS011;17724;53.546;9.974;2023-02-28T21:03:26;19.23;;;12.63;;
31061;SDS011;17724;53.546;9.974;2023-02-28T21:07:27;19.40;;;11.60;;
31061;SDS011;17724;53.546;9.974;2023-02-28T21:11:29;11.53;;;6.00;;
31061;SDS011;17724;53.546;9.974;2023-02-28T21:15:31;15.30;;;7.90;;
31061;SDS011;17724;53.546;9.974;2023-02-28T21:19:31;10.83;;;5.63;;
31061;SDS011;17724;53.546;9.974;2023-02-28T21:23:32;14.37;;;6.20;;
31061;SDS011;17724;53.546;9.974;2023-02-28T21:27:33;12.50;;;5.10;;
31061;SDS011;17724;53.546;9.974;2023-02-28T21:31:34;10.97;;;5.00;;
31061;SDS011;17724;53.546;9.974;2023-02-28T21:35:35;10.93;;;5.03;;
31061;SDS011;17724;53.546;9.974;2023-02-28T21:39:36;11.37;;;5.50;;
31061;SDS011;17724;53.546;9.974;2023-02-28T21:43:36;11.87;;;5.47;;
31061;SDS011;17724;53.546;9.974;2023-02-28T21:47:37;9.87;;;4.87;;
31061;SDS011;17724;53.546;9.974;2023-02-28T21:51:38;11.70;;;4.93;;
31061;SDS011;17724;53.546;9.974;2023-02-28T21:55:38;9.30;;;4.10;;
31061;SDS011;17724;53.546;9.974;2023-02-28T21:59:39;10.57;;;4.30;;
31061;SDS011;17724;53.546;9.974;2023-02-28T22:03:40;10.47;;;4.47;;
31061;SDS011;17724;53.546;9.974;2023-02-28T22:07:43;12.17;;;5.70;;
31061;SDS011;17724;53.546;9.974;2023-02-28T22:11:43;10.67;;;4.83;;
31061;SDS011;17724;53.546;9.974;2023-02-28T22:15:44;9.80;;;5.10;;
31061;SDS011;17724;53.546;9.974;2023-02-28T22:19:44;9.80;;;4.83;;
31061;SDS011;17724;53.546;9.974;2023-02-28T22:23:45;10.80;;;5.40;;
31061;SDS011;17724;53.546;9.974;2023-02-28T22:27:46;11.10;;;5.70;;
31061;SDS011;17724;53.546;9.974;2023-02-28T22:31:46;13.03;;;5.67;;
31061;SDS011;17724;53.546;9.974;2023-02-28T22:35:47;9.93;;;6.07;;
31061;SDS011;17724;53.546;9.974;2023-02-28T22:39:48;11.70;;;5.50;;
31061;SDS011;17724;53.546;9.974;2023-02-28T22:43:49;9.90;;;5.63;;
31061;SDS011;17724;53.546;9.974;2023-02-28T22:47:52;11.27;;;5.97;;
31061;SDS011;17724;53.546;9.974;2023-02-28T22:51:53;11.77;;;6.00;;
31061;SDS011;17724;53.546;9.974;2023-02-28T22:55:57;10.80;;;6.50;;
31061;SDS011;17724;53.546;9.974;2023-02-28T22:59:57;13.83;;;7.60;;
31061;SDS011;17724;53.546;9.974;2023-02-28T23:03:58;11.17;;;6.33;;
31061;SDS011;17724;53.546;9.974;2023-02-28T23:07:59;12.73;;;6.73;;
31061;SDS011;17724;53.546;9.974;2023-02-28T23:12:00;13.17;;;7.30;;
31061;SDS011;17724;53.546;9.974;2023-02-28T23:16:03;11.70;;;6.67;;
31061;SDS011;17724;53.546;9.974;2023-02-28T23:20:05;12.90;;;6.97;;
31061;SDS011;17724;53.546;9.974;2023-02-28T23:24:06;11.47;;;6.53;;
31061;SDS011;17724;53.546;9.974;2023-02-28T23:28:11;13.13;;;7.00;;
31061;SDS011;17724;53.546;9.974;2023-02-28T23:32:11;12.63;;;6.40;;
31061;SDS011;17724;53.546;9.974;2023-02-28T23:36:12;13.50;;;6.60;;
31061;SDS011;17724;53.546;9.974;2023-02-28T23:40:14;10.53;;;5.80;;
31061;SDS011;17724;53.546;9.974;2023-02-28T23:44:16;12.07;;;6.23;;
31061;SDS011;17724;53.546;9.974;2023-02-28T23:48:16;17.27;;;6.77;;
31061;SDS011;17724;53.546;9.974;2023-02-28T23:52:17;11.97;;;6.70;;
31061;SDS011;17724;53.546;9.974;2023-02-28T23:56:19;11.67;;;7.23;;
